createdAt,value
2019-03-05T00:01:40.414Z,3.03
2019-03-05T00:04:10.323Z,2.70
2019-03-05T00:06:39.561Z,3.37
2019-03-05T00:09:15.995Z,2.37
2019-03-05T00:11:44.887Z,2.47
2019-03-05T00:16:48.191Z,2.20
2019-03-05T00:19:17.202Z,3.27
2019-03-05T00:21:46.392Z,1.93
2019-03-05T00:24:51.576Z,3.03
2019-03-05T00:27:20.422Z,2.33
2019-03-05T00:30:19.891Z,2.90
2019-03-05T00:32:52.376Z,2.70
2019-03-05T00:35:45.078Z,2.90
2019-03-05T00:38:30.358Z,2.80
2019-03-05T00:41:33.969Z,3.23
2019-03-05T00:44:35.368Z,2.27
2019-03-05T00:47:27.369Z,2.40
2019-03-05T00:50:15.548Z,2.27
2019-03-05T00:53:08.410Z,2.47
2019-03-05T00:55:59.749Z,1.50
2019-03-05T00:58:55.948Z,2.30
2019-03-05T01:01:38.194Z,1.70
2019-03-05T01:04:45.102Z,1.53
2019-03-05T01:07:15.216Z,2.50
2019-03-05T01:09:45.136Z,2.10
2019-03-05T01:12:15.616Z,2.60
2019-03-05T01:14:44.919Z,2.17
2019-03-05T01:17:14.450Z,1.90
2019-03-05T01:19:44.040Z,2.23
2019-03-05T01:22:13.271Z,2.20
2019-03-05T01:24:44.060Z,2.00
2019-03-05T01:27:13.735Z,2.10
2019-03-05T01:29:42.601Z,1.50
2019-03-05T01:32:18.905Z,1.90
2019-03-05T01:37:55.229Z,2.00
2019-03-05T01:40:47.123Z,2.53
2019-03-05T01:43:16.015Z,1.70
2019-03-05T01:45:45.859Z,2.13
2019-03-05T01:48:14.748Z,2.17
2019-03-05T01:50:43.627Z,1.30
2019-03-05T01:53:12.777Z,2.10
2019-03-05T01:55:44.937Z,1.63
2019-03-05T01:58:13.841Z,1.40
2019-03-05T02:00:43.039Z,1.70
2019-03-05T02:03:11.946Z,1.67
2019-03-05T02:05:40.868Z,1.63
2019-03-05T02:08:09.847Z,2.60
2019-03-05T02:10:38.705Z,2.00
2019-03-05T02:13:09.456Z,1.60
2019-03-05T02:15:38.258Z,1.60
2019-03-05T02:18:08.831Z,1.60
2019-03-05T02:20:38.647Z,2.17
2019-03-05T02:23:28.711Z,1.60
2019-03-05T02:26:02.204Z,1.30
2019-03-05T02:29:11.902Z,1.97
2019-03-05T02:32:20.890Z,1.70
2019-03-05T02:35:07.303Z,1.90
2019-03-05T02:38:21.475Z,2.10
2019-03-05T02:41:42.912Z,2.10
2019-03-05T02:44:36.977Z,1.80
2019-03-05T02:47:50.236Z,1.80
2019-03-05T02:50:56.238Z,2.63
2019-03-05T02:53:59.911Z,1.70
2019-03-05T02:56:42.678Z,2.40
2019-03-05T02:59:10.196Z,1.77
2019-03-05T03:02:00.958Z,1.97
2019-03-05T03:04:33.302Z,1.97
2019-03-05T03:07:06.646Z,2.37
2019-03-05T03:10:06.469Z,1.33
2019-03-05T03:12:35.448Z,1.10
2019-03-05T03:15:05.314Z,1.57
2019-03-05T03:17:34.215Z,1.37
2019-03-05T03:20:03.423Z,1.90
2019-03-05T03:22:32.597Z,1.30
2019-03-05T03:25:01.487Z,1.60
2019-03-05T03:27:30.295Z,1.63
2019-03-05T03:29:59.131Z,1.77
2019-03-05T03:32:28.288Z,1.83
2019-03-05T03:34:57.578Z,1.70
2019-03-05T03:37:26.594Z,1.03
2019-03-05T03:39:55.528Z,1.60
2019-03-05T03:42:24.886Z,2.37
2019-03-05T03:44:54.055Z,1.57
2019-03-05T03:47:22.932Z,1.73
2019-03-05T03:49:52.462Z,1.80
2019-03-05T03:52:21.948Z,1.23
2019-03-05T03:54:51.779Z,2.00
2019-03-05T03:57:20.941Z,1.80
2019-03-05T03:59:50.125Z,2.37
2019-03-05T04:02:20.000Z,2.03
2019-03-05T04:04:49.266Z,1.60
2019-03-05T04:07:18.195Z,2.00
2019-03-05T04:09:47.516Z,1.77
2019-03-05T04:12:16.461Z,1.77
2019-03-05T04:14:45.457Z,1.87
2019-03-05T04:17:15.477Z,1.60
2019-03-05T04:19:44.562Z,1.00
2019-03-05T04:22:13.416Z,1.27
2019-03-05T04:24:42.357Z,1.80
2019-03-05T04:27:11.496Z,1.53
2019-03-05T04:29:42.518Z,1.63
2019-03-05T04:32:12.274Z,1.77
2019-03-05T04:34:41.318Z,2.00
2019-03-05T04:37:10.211Z,1.57
2019-03-05T04:39:39.422Z,1.73
2019-03-05T04:42:08.571Z,1.77
2019-03-05T04:44:51.462Z,1.97
2019-03-05T04:47:20.427Z,1.43
2019-03-05T04:50:00.993Z,1.70
2019-03-05T04:52:33.128Z,1.37
2019-03-05T04:55:02.093Z,1.53
2019-03-05T04:57:30.964Z,1.60
2019-03-05T05:00:00.412Z,1.80
2019-03-05T05:02:29.708Z,2.00
2019-03-05T05:05:02.546Z,1.60
2019-03-05T05:07:31.728Z,1.87
2019-03-05T05:10:02.320Z,1.80
2019-03-05T05:12:31.191Z,1.57
2019-03-05T05:15:00.061Z,2.00
2019-03-05T05:17:30.266Z,1.50
2019-03-05T05:20:00.356Z,1.97
2019-03-05T05:22:32.018Z,1.63
2019-03-05T05:25:01.441Z,1.63
2019-03-05T05:27:30.320Z,1.80
2019-03-05T05:29:59.425Z,2.17
2019-03-05T05:32:28.578Z,2.13
2019-03-05T05:34:58.299Z,2.27
2019-03-05T05:37:27.107Z,1.90
2019-03-05T05:40:26.967Z,2.30
2019-03-05T05:42:57.023Z,1.60
2019-03-05T05:45:28.409Z,1.60
2019-03-05T05:47:58.102Z,1.77
2019-03-05T05:50:27.271Z,1.60
2019-03-05T05:52:56.173Z,2.23
2019-03-05T05:55:25.075Z,1.70
2019-03-05T05:57:54.874Z,2.27
2019-03-05T06:00:23.948Z,1.67
2019-03-05T06:02:54.422Z,1.70
2019-03-05T06:05:23.688Z,1.93
2019-03-05T06:07:52.574Z,1.47
2019-03-05T06:10:24.961Z,1.47
2019-03-05T06:12:54.975Z,1.70
2019-03-05T06:15:24.185Z,1.60
2019-03-05T06:17:53.191Z,1.53
2019-03-05T06:20:23.902Z,1.67
2019-03-05T06:22:55.699Z,2.17
2019-03-05T06:25:25.028Z,1.20
2019-03-05T06:27:53.942Z,1.70
2019-03-05T06:30:22.894Z,1.60
2019-03-05T06:32:54.001Z,1.90
2019-03-05T06:35:23.667Z,2.17
2019-03-05T06:37:55.895Z,1.90
2019-03-05T06:40:24.817Z,1.70
2019-03-05T06:42:54.629Z,2.30
2019-03-05T06:45:26.402Z,1.80
2019-03-05T06:47:55.523Z,1.37
2019-03-05T06:50:25.702Z,1.70
2019-03-05T06:52:55.016Z,1.90
2019-03-05T06:55:24.144Z,2.17
2019-03-05T06:57:53.414Z,1.90
2019-03-05T07:00:38.710Z,1.67
2019-03-05T07:03:08.971Z,1.80
2019-03-05T07:06:16.811Z,1.47
2019-03-05T07:08:53.243Z,1.80
2019-03-05T07:11:53.303Z,1.80
2019-03-05T07:14:51.192Z,1.70
2019-03-05T07:17:27.343Z,1.53
2019-03-05T07:20:26.342Z,1.63
2019-03-05T07:23:36.712Z,1.63
2019-03-05T07:26:06.718Z,2.40
2019-03-05T07:28:38.727Z,1.60
2019-03-05T07:31:08.461Z,2.37
2019-03-05T07:33:37.602Z,1.60
2019-03-05T07:36:07.828Z,2.17
2019-03-05T07:38:36.720Z,1.90
2019-03-05T07:41:05.594Z,1.73
2019-03-05T07:43:36.751Z,2.67
2019-03-05T07:46:05.512Z,1.63
2019-03-05T07:48:34.454Z,1.87
2019-03-05T07:51:04.088Z,1.80
2019-03-05T07:53:33.878Z,2.17
2019-03-05T07:56:03.258Z,2.50
2019-03-05T07:58:35.730Z,2.13
2019-03-05T08:01:05.790Z,2.07
2019-03-05T08:03:36.995Z,1.60
2019-03-05T08:06:06.258Z,1.90
2019-03-05T08:09:11.515Z,2.27
2019-03-05T08:11:40.456Z,1.53
2019-03-05T08:14:33.029Z,1.70
2019-03-05T08:17:01.928Z,1.80
2019-03-05T08:19:31.960Z,1.70
2019-03-05T08:22:01.038Z,1.60
2019-03-05T08:24:29.965Z,1.77
2019-03-05T08:26:58.914Z,1.70
2019-03-05T08:29:31.122Z,1.77
2019-03-05T08:32:01.359Z,1.47
2019-03-05T08:34:30.337Z,1.60
2019-03-05T08:36:59.251Z,1.87
2019-03-05T08:39:28.823Z,2.13
2019-03-05T08:41:59.982Z,1.87
2019-03-05T08:44:29.158Z,1.80
2019-03-05T08:46:59.253Z,1.80
2019-03-05T08:49:28.964Z,1.90
2019-03-05T08:52:02.216Z,1.40
2019-03-05T08:54:31.421Z,1.47
2019-03-05T08:57:00.854Z,1.80
2019-03-05T08:59:32.479Z,1.63
2019-03-05T09:02:00.660Z,2.10
2019-03-05T09:04:29.558Z,1.77
2019-03-05T09:06:58.478Z,1.90
2019-03-05T09:09:28.336Z,2.07
2019-03-05T09:11:57.308Z,1.73
2019-03-05T09:14:26.269Z,1.97
2019-03-05T09:16:55.290Z,0.97
2019-03-05T09:21:58.655Z,1.40
2019-03-05T09:24:29.484Z,1.80
2019-03-05T09:26:58.763Z,1.60
2019-03-05T09:29:27.915Z,2.23
2019-03-05T09:31:56.850Z,1.93
2019-03-05T09:34:26.492Z,1.20
2019-03-05T09:36:55.364Z,1.40
2019-03-05T09:39:24.674Z,2.57
2019-03-05T09:41:54.263Z,1.50
2019-03-05T09:44:23.618Z,2.00
2019-03-05T09:46:52.937Z,1.70
2019-03-05T09:49:29.259Z,1.97
2019-03-05T09:51:58.868Z,1.80
2019-03-05T09:54:27.899Z,1.50
2019-03-05T09:56:56.943Z,1.97
2019-03-05T09:59:29.097Z,1.47
2019-03-05T10:01:59.787Z,1.70
2019-03-05T10:04:32.315Z,1.13
2019-03-05T10:07:01.449Z,1.80
2019-03-05T10:09:30.437Z,1.70
2019-03-05T10:11:59.401Z,1.67
2019-03-05T10:14:31.507Z,1.83
2019-03-05T10:17:03.797Z,1.60
2019-03-05T10:19:32.638Z,1.30
2019-03-05T10:22:01.814Z,1.73
2019-03-05T10:24:44.262Z,1.40
2019-03-05T10:27:20.427Z,1.17
2019-03-05T10:29:52.493Z,1.20
2019-03-05T10:32:21.637Z,1.70
2019-03-05T10:34:50.565Z,1.67
2019-03-05T10:37:19.972Z,1.27
2019-03-05T10:39:48.779Z,1.63
2019-03-05T10:42:18.541Z,1.30
2019-03-05T10:44:47.422Z,1.60
2019-03-05T10:47:16.900Z,1.50
2019-03-05T10:49:46.278Z,1.40
2019-03-05T10:52:15.405Z,1.40
2019-03-05T10:54:44.647Z,2.00
2019-03-05T10:57:15.010Z,1.70
2019-03-05T10:59:43.926Z,1.70
2019-03-05T11:02:12.851Z,1.50
2019-03-05T11:04:45.950Z,1.20
2019-03-05T11:07:13.593Z,1.40
2019-03-05T11:09:42.487Z,1.70
2019-03-05T11:12:11.749Z,1.60
2019-03-05T11:14:40.769Z,1.50
2019-03-05T11:17:10.959Z,0.97
2019-03-05T11:19:40.313Z,1.20
2019-03-05T11:22:09.354Z,1.40
2019-03-05T11:24:38.727Z,1.53
2019-03-05T11:27:08.202Z,1.07
2019-03-05T11:29:37.151Z,1.10
2019-03-05T11:32:06.134Z,1.60
2019-03-05T11:34:35.530Z,1.40
2019-03-05T11:37:04.456Z,1.30
2019-03-05T11:39:33.761Z,1.43
2019-03-05T11:42:02.867Z,1.10
2019-03-05T11:44:32.613Z,1.27
2019-03-05T11:47:01.787Z,1.20
2019-03-05T11:49:31.055Z,1.30
2019-03-05T11:51:59.996Z,1.80
2019-03-05T11:54:29.175Z,1.40
2019-03-05T11:56:58.425Z,1.10
2019-03-05T11:59:29.144Z,1.00
2019-03-05T12:01:58.363Z,1.27
2019-03-05T12:04:30.907Z,1.87
2019-03-05T12:07:00.160Z,1.73
2019-03-05T12:09:29.344Z,1.07
2019-03-05T12:11:58.337Z,0.93
2019-03-05T12:14:30.444Z,2.00
2019-03-05T12:16:59.597Z,1.53
2019-03-05T12:19:28.715Z,1.40
2019-03-05T12:21:57.927Z,1.03
2019-03-05T12:24:26.868Z,1.30
2019-03-05T12:26:55.860Z,1.70
2019-03-05T12:29:25.546Z,0.83
2019-03-05T12:31:54.555Z,1.53
2019-03-05T12:34:23.981Z,1.23
2019-03-05T12:36:56.662Z,1.27
2019-03-05T12:39:28.722Z,1.00
2019-03-05T12:42:12.087Z,1.40
2019-03-05T12:44:41.286Z,1.53
2019-03-05T12:47:10.318Z,1.40
2019-03-05T12:49:39.831Z,1.10
2019-03-05T12:52:09.348Z,1.33
2019-03-05T12:54:38.551Z,0.97
2019-03-05T12:57:08.550Z,1.33
2019-03-05T12:59:37.585Z,1.33
2019-03-05T13:02:06.637Z,1.37
2019-03-05T13:04:38.695Z,1.30
2019-03-05T13:07:07.873Z,1.20
2019-03-05T13:09:36.747Z,1.37
2019-03-05T13:12:06.014Z,1.47
2019-03-05T13:14:38.309Z,1.60
2019-03-05T13:17:06.308Z,1.40
2019-03-05T13:19:38.855Z,1.60
2019-03-05T13:22:08.223Z,1.20
2019-03-05T13:24:38.356Z,1.47
2019-03-05T13:27:07.515Z,1.40
2019-03-05T13:29:38.628Z,1.20
2019-03-05T13:32:07.799Z,1.60
2019-03-05T13:34:36.701Z,1.40
2019-03-05T13:37:09.234Z,1.60
2019-03-05T13:39:38.167Z,0.97
2019-03-05T13:42:07.974Z,1.63
2019-03-05T13:44:40.041Z,1.30
2019-03-05T13:47:09.886Z,1.70
2019-03-05T13:50:04.438Z,1.20
2019-03-05T13:53:26.996Z,1.50
2019-03-05T13:56:37.749Z,1.03
2019-03-05T13:59:47.900Z,1.33
2019-03-05T14:02:53.986Z,1.10
2019-03-05T14:06:19.098Z,1.43
2019-03-05T14:09:16.436Z,1.80
2019-03-05T14:11:46.874Z,1.67
2019-03-05T14:14:22.189Z,1.17
2019-03-05T14:16:59.607Z,1.83
2019-03-05T14:19:29.577Z,1.50
2019-03-05T14:21:58.655Z,1.57
2019-03-05T14:24:27.670Z,1.20
2019-03-05T14:26:57.082Z,1.70
2019-03-05T14:29:29.263Z,1.20
2019-03-05T14:31:58.420Z,1.20
2019-03-05T14:34:35.203Z,1.40
2019-03-05T14:37:04.633Z,1.10
2019-03-05T14:39:34.932Z,1.37
2019-03-05T14:42:06.748Z,1.87
2019-03-05T14:44:40.204Z,1.40
2019-03-05T14:47:07.507Z,1.77
2019-03-05T14:49:37.344Z,1.40
2019-03-05T14:52:07.505Z,1.30
2019-03-05T14:54:36.838Z,1.43
2019-03-05T14:57:06.022Z,1.70
2019-03-05T14:59:35.787Z,1.67
2019-03-05T15:02:05.129Z,1.53
2019-03-05T15:04:35.205Z,1.37
2019-03-05T15:07:04.810Z,1.93
2019-03-05T15:09:34.510Z,1.40
2019-03-05T15:12:04.396Z,2.57
2019-03-05T15:14:35.204Z,1.50
2019-03-05T15:17:04.447Z,1.10
2019-03-05T15:19:34.809Z,1.20
2019-03-05T15:22:03.923Z,1.13
2019-03-05T15:24:33.225Z,1.33
2019-03-05T15:27:03.726Z,1.60
2019-03-05T15:29:36.204Z,1.17
2019-03-05T15:32:11.296Z,1.30
2019-03-05T15:34:40.273Z,1.60
2019-03-05T15:37:09.697Z,1.30
2019-03-05T15:39:39.156Z,1.57
2019-03-05T15:42:10.297Z,1.60
2019-03-05T15:44:39.750Z,1.90
2019-03-05T15:47:09.259Z,1.37
2019-03-05T15:49:40.397Z,1.77
2019-03-05T15:52:09.392Z,1.27
2019-03-05T15:54:38.486Z,1.40
2019-03-05T15:57:12.153Z,1.15
2019-03-05T15:59:41.215Z,1.70
2019-03-05T16:02:11.241Z,1.20
2019-03-05T16:04:43.862Z,1.15
2019-03-05T16:07:13.816Z,1.30
2019-03-05T16:12:19.331Z,1.30
2019-03-05T16:14:48.243Z,1.60
2019-03-05T16:17:18.662Z,1.40
2019-03-05T16:19:49.082Z,1.80
2019-03-05T16:22:19.627Z,1.82
2019-03-05T16:24:53.725Z,1.60
2019-03-05T16:27:23.459Z,1.42
2019-03-05T16:29:55.788Z,1.70
2019-03-05T16:32:43.382Z,1.40
2019-03-05T16:35:32.462Z,1.47
2019-03-05T16:38:21.207Z,1.43
2019-03-05T16:41:06.015Z,1.70
2019-03-05T16:43:53.688Z,1.50
2019-03-05T16:46:41.036Z,1.60
2019-03-05T16:49:28.059Z,1.67
2019-03-05T16:52:16.171Z,1.70
2019-03-05T16:55:04.224Z,1.40
2019-03-05T16:57:42.306Z,1.53
2019-03-05T17:00:31.628Z,1.83
2019-03-05T17:06:15.565Z,1.53
2019-03-05T17:11:52.681Z,1.30
2019-03-05T17:14:22.515Z,1.60
2019-03-05T17:16:54.990Z,1.47
2019-03-05T17:19:23.973Z,1.80
2019-03-05T17:21:56.127Z,1.87
2019-03-05T17:24:25.182Z,1.70
2019-03-05T17:26:54.276Z,2.03
2019-03-05T17:29:23.564Z,2.23
2019-03-05T17:31:52.631Z,2.27
2019-03-05T17:34:21.829Z,2.33
2019-03-05T17:36:51.183Z,1.60
2019-03-05T17:39:24.199Z,1.83
2019-03-05T17:41:53.632Z,2.03
2019-03-05T17:44:22.970Z,1.53
2019-03-05T17:46:51.941Z,2.27
2019-03-05T17:49:20.960Z,1.80
2019-03-05T17:51:49.935Z,1.93
2019-03-05T17:54:19.651Z,1.70
2019-03-05T17:56:49.650Z,2.70
2019-03-05T17:59:18.874Z,2.03
2019-03-05T18:01:47.929Z,2.40
2019-03-05T18:04:20.183Z,1.90
2019-03-05T18:06:49.285Z,2.40
2019-03-05T18:09:18.879Z,2.60
2019-03-05T18:11:47.883Z,2.33
2019-03-05T18:14:16.811Z,2.20
2019-03-05T18:16:45.831Z,2.53
2019-03-05T18:19:15.333Z,2.30
2019-03-05T18:21:47.374Z,2.17
2019-03-05T18:24:16.767Z,2.50
2019-03-05T18:26:46.009Z,2.90
2019-03-05T18:29:15.196Z,2.27
2019-03-05T18:31:44.246Z,2.57
2019-03-05T18:34:13.799Z,2.10
2019-03-05T18:36:43.140Z,2.30
2019-03-05T18:39:13.689Z,2.37
2019-03-05T18:41:44.850Z,2.70
2019-03-05T18:44:15.128Z,2.17
2019-03-05T18:46:44.123Z,2.10
2019-03-05T18:49:13.130Z,1.93
2019-03-05T18:51:42.646Z,2.40
2019-03-05T18:54:12.279Z,3.40
2019-03-05T18:56:41.269Z,2.10
2019-03-05T18:59:13.695Z,2.40
2019-03-05T19:01:42.772Z,2.30
2019-03-05T19:04:12.334Z,2.20
2019-03-05T19:06:41.363Z,3.83
2019-03-05T19:09:11.142Z,3.07
2019-03-05T19:11:40.527Z,2.10
2019-03-05T19:14:09.620Z,2.63
2019-03-05T19:16:38.928Z,2.83
2019-03-05T19:19:14.940Z,2.30
2019-03-05T19:21:45.065Z,2.67
2019-03-05T19:24:17.091Z,2.63
2019-03-05T19:26:46.092Z,2.27
2019-03-05T19:29:15.542Z,2.30
2019-03-05T19:31:47.920Z,3.77
2019-03-05T19:34:17.110Z,2.87
2019-03-05T19:36:46.083Z,2.30
2019-03-05T19:39:15.681Z,1.83
2019-03-05T19:41:44.778Z,3.20
2019-03-05T19:44:15.252Z,3.20
2019-03-05T19:46:44.345Z,2.47
2019-03-05T19:49:13.225Z,2.40
2019-03-05T19:51:42.277Z,2.80
2019-03-05T19:54:11.379Z,3.27
2019-03-05T19:56:40.441Z,3.10
2019-03-05T19:59:09.507Z,3.07
2019-03-05T20:01:41.505Z,3.70
2019-03-05T20:04:11.899Z,2.80
2019-03-05T20:06:41.184Z,2.70
2019-03-05T20:09:10.597Z,3.27
2019-03-05T20:11:46.029Z,3.13
2019-03-05T20:14:15.016Z,2.87
2019-03-05T20:16:45.494Z,3.03
2019-03-05T20:19:14.760Z,3.50
2019-03-05T20:21:46.909Z,3.20
2019-03-05T20:24:16.559Z,2.87
2019-03-05T20:26:45.842Z,3.43
2019-03-05T20:29:14.888Z,2.80
2019-03-05T20:31:45.122Z,2.60
2019-03-05T20:34:14.666Z,3.13
2019-03-05T20:36:45.175Z,2.63
2019-03-05T20:39:15.524Z,2.63
2019-03-05T20:41:44.660Z,2.57
2019-03-05T20:44:13.855Z,3.53
2019-03-05T20:46:42.924Z,3.30
2019-03-05T20:49:12.732Z,3.00
2019-03-05T20:51:42.477Z,2.60
2019-03-05T20:54:11.683Z,3.07
2019-03-05T20:56:41.318Z,2.87
2019-03-05T20:59:10.439Z,2.90
2019-03-05T21:01:39.911Z,3.13
2019-03-05T21:04:08.996Z,2.97
2019-03-05T21:06:38.474Z,2.60
2019-03-05T21:09:19.433Z,3.07
2019-03-05T21:11:48.753Z,4.03
2019-03-05T21:14:18.231Z,4.80
2019-03-05T21:16:47.339Z,3.60
2019-03-05T21:19:16.350Z,5.07
2019-03-05T21:21:45.629Z,4.10
2019-03-05T21:24:14.555Z,3.20
2019-03-05T21:26:44.514Z,4.07
2019-03-05T21:29:13.503Z,2.90
2019-03-05T21:31:47.549Z,3.53
2019-03-05T21:34:19.616Z,3.43
2019-03-05T21:36:49.846Z,3.87
2019-03-05T21:39:19.727Z,3.80
2019-03-05T21:41:48.553Z,3.27
2019-03-05T21:44:17.928Z,3.90
2019-03-05T21:46:47.974Z,3.60
2019-03-05T21:49:17.359Z,3.87
2019-03-05T21:54:26.312Z,3.70
2019-03-05T21:56:56.908Z,3.53
2019-03-05T21:59:26.335Z,3.83
2019-03-05T22:01:56.146Z,3.23
2019-03-05T22:04:25.394Z,4.23
2019-03-05T22:06:57.859Z,3.70
2019-03-05T22:09:27.478Z,3.87
2019-03-05T22:11:59.889Z,3.77
2019-03-05T22:14:29.524Z,3.67
2019-03-05T22:16:58.429Z,4.10
2019-03-05T22:19:27.830Z,4.10
2019-03-05T22:21:56.872Z,4.70
2019-03-05T22:24:26.022Z,4.43
2019-03-05T22:26:59.054Z,4.40
2019-03-05T22:29:30.862Z,4.17
2019-03-05T22:32:00.255Z,4.50
2019-03-05T22:34:29.142Z,4.57
2019-03-05T22:36:58.436Z,4.27
2019-03-05T22:39:27.607Z,4.53
2019-03-05T22:41:58.435Z,4.83
2019-03-05T22:44:27.899Z,5.40
2019-03-05T22:46:56.883Z,4.60
2019-03-05T22:49:30.288Z,5.30
2019-03-05T22:52:12.801Z,5.50
2019-03-05T22:54:41.727Z,5.33
2019-03-05T22:57:10.737Z,5.40
2019-03-05T22:59:40.693Z,5.37
2019-03-05T23:02:09.778Z,5.40
2019-03-05T23:04:41.699Z,5.03
2019-03-05T23:07:11.547Z,5.13
2019-03-05T23:09:41.335Z,5.70
2019-03-05T23:12:11.897Z,5.80
2019-03-05T23:14:41.303Z,6.93
2019-03-05T23:17:10.611Z,6.10
2019-03-05T23:19:39.631Z,5.73
2019-03-05T23:22:10.763Z,5.90
2019-03-05T23:24:39.655Z,6.20
2019-03-05T23:27:09.043Z,6.57
2019-03-05T23:29:43.333Z,6.00
2019-03-05T23:32:12.821Z,5.73
2019-03-05T23:34:42.522Z,6.90
2019-03-05T23:37:15.168Z,6.77
2019-03-05T23:39:44.581Z,6.20
2019-03-05T23:42:13.499Z,6.80
2019-03-05T23:44:42.421Z,6.50
2019-03-05T23:47:11.687Z,7.47
2019-03-05T23:49:40.618Z,7.10
2019-03-05T23:52:09.577Z,7.67
2019-03-05T23:54:40.401Z,7.67
2019-03-05T23:57:09.818Z,8.33
2019-03-05T23:59:39.247Z,8.47
